Time;durP1;ratioP1;P1;durP2;ratioP2;P2;SDS_P1;SDS_P2;PMS_P1;PMS_P2;Temp;Humidity;BMP_temperature;BMP_pressure;BME280_temperature;BME280_humidity;BME280_pressure;Samples;Min_cycle;Max_cycle;Signal;HPM_P1;HPM_P2
2022/04/03 00:01:14;;;;;;;32.83;17.55;;;;;;;;;;5032095;28;20128;-70
2022/04/03 00:03:39;;;;;;;32.05;17.50;;;;;;;;;;5038072;28;20039;-70
2022/04/03 00:06:05;;;;;;;34.08;17.40;;;;;;;;;;5052984;28;20048;-70
2022/04/03 00:08:31;;;;;;;35.07;18.63;;;;;;;;;;5053220;28;20036;-70
2022/04/03 00:10:56;;;;;;;30.25;17.13;;;;;;;;;;5058579;28;20369;-70
2022/04/03 00:13:22;;;;;;;33.70;18.42;;;;;;;;;;5057287;28;20060;-71
2022/04/03 00:15:47;;;;;;;34.47;17.70;;;;;;;;;;5058720;28;20430;-71
2022/04/03 00:18:12;;;;;;;32.47;17.13;;;;;;;;;;5059262;28;20051;-70
2022/04/03 00:20:39;;;;;;;29.70;17.27;;;;;;;;;;5058535;28;20487;-70
2022/04/03 00:23:06;;;;;;;36.25;18.17;;;;;;;;;;5046420;28;20064;-70
2022/04/03 00:25:31;;;;;;;33.80;16.85;;;;;;;;;;5050511;28;20031;-70
2022/04/03 00:27:57;;;;;;;34.15;17.38;;;;;;;;;;5052398;28;20123;-70
2022/04/03 00:30:22;;;;;;;31.15;17.30;;;;;;;;;;5052492;28;20052;-70
2022/04/03 00:32:47;;;;;;;30.73;16.50;;;;;;;;;;5050211;28;20025;-70
2022/04/03 00:35:12;;;;;;;32.85;17.08;;;;;;;;;;5049408;28;20282;-70
2022/04/03 00:37:38;;;;;;;30.33;16.17;;;;;;;;;;5049647;28;20044;-69
2022/04/03 00:40:03;;;;;;;34.15;16.88;;;;;;;;;;5046347;28;20327;-71
2022/04/03 00:42:29;;;;;;;33.20;17.58;;;;;;;;;;5044006;28;20068;-71
2022/04/03 00:44:54;;;;;;;32.92;17.63;;;;;;;;;;5050420;28;20036;-70
2022/04/03 00:47:20;;;;;;;29.23;16.33;;;;;;;;;;5050909;28;20051;-71
2022/04/03 00:49:45;;;;;;;31.63;16.83;;;;;;;;;;5052153;28;20839;-71
2022/04/03 00:52:11;;;;;;;32.47;18.00;;;;;;;;;;5052806;28;20360;-70
2022/04/03 00:54:36;;;;;;;34.75;17.05;;;;;;;;;;5051572;28;20490;-70
2022/04/03 00:57:05;;;;;;;34.22;16.15;;;;;;;;;;5051737;28;20112;-70
2022/04/03 00:59:30;;;;;;;33.10;17.98;;;;;;;;;;5048683;28;20076;-70
2022/04/03 01:01:56;;;;;;;34.67;18.17;;;;;;;;;;5051032;28;20068;-70
2022/04/03 01:04:21;;;;;;;35.33;17.80;;;;;;;;;;5052300;28;20278;-70
2022/04/03 01:06:46;;;;;;;33.42;17.90;;;;;;;;;;5051528;28;20086;-70
2022/04/03 01:09:12;;;;;;;32.38;18.40;;;;;;;;;;5052747;28;20090;-71
2022/04/03 01:11:38;;;;;;;34.17;18.55;;;;;;;;;;5050136;28;20438;-70
2022/04/03 01:14:05;;;;;;;35.17;18.33;;;;;;;;;;5052087;28;20040;-70
2022/04/03 01:16:30;;;;;;;32.67;17.92;;;;;;;;;;5052207;28;20094;-71
2022/04/03 01:18:56;;;;;;;31.67;17.70;;;;;;;;;;5050509;28;20037;-70
2022/04/03 01:21:21;;;;;;;34.70;18.07;;;;;;;;;;5051882;28;20399;-71
2022/04/03 01:23:46;;;;;;;38.67;19.43;;;;;;;;;;5051677;28;20272;-70
2022/04/03 01:26:12;;;;;;;34.33;17.88;;;;;;;;;;5052021;28;20270;-70
2022/04/03 01:28:39;;;;;;;32.92;18.73;;;;;;;;;;5051947;28;20040;-70
2022/04/03 01:31:04;;;;;;;31.77;17.88;;;;;;;;;;5051953;28;20499;-70
2022/04/03 01:33:29;;;;;;;32.47;18.38;;;;;;;;;;5051311;28;20064;-70
2022/04/03 01:35:54;;;;;;;33.25;17.67;;;;;;;;;;5049774;28;20045;-70
2022/04/03 01:38:20;;;;;;;37.95;19.20;;;;;;;;;;5052189;28;20309;-69
2022/04/03 01:40:45;;;;;;;36.53;18.98;;;;;;;;;;5051212;28;20465;-70
2022/04/03 01:43:10;;;;;;;39.47;18.93;;;;;;;;;;5049922;28;20062;-69
2022/04/03 01:45:36;;;;;;;35.20;18.80;;;;;;;;;;5050725;28;20261;-69
2022/04/03 01:48:02;;;;;;;34.35;18.50;;;;;;;;;;5052036;28;20047;-69
2022/04/03 01:50:27;;;;;;;32.58;17.17;;;;;;;;;;5035825;28;20124;-70
2022/04/03 01:52:53;;;;;;;34.42;18.63;;;;;;;;;;5051004;28;20306;-70
2022/04/03 01:55:18;;;;;;;35.60;19.17;;;;;;;;;;5051453;28;20563;-71
2022/04/03 01:57:44;;;;;;;32.17;17.90;;;;;;;;;;5046735;28;20064;-70
2022/04/03 02:00:12;;;;;;;34.55;18.02;;;;;;;;;;5041544;28;20091;-70
2022/04/03 02:02:38;;;;;;;34.72;18.15;;;;;;;;;;5046200;28;20043;-69
2022/04/03 02:05:04;;;;;;;35.17;19.50;;;;;;;;;;5049542;28;20036;-69
2022/04/03 02:07:30;;;;;;;36.03;19.65;;;;;;;;;;5051301;28;20048;-71
2022/04/03 02:09:56;;;;;;;36.53;18.17;;;;;;;;;;5051526;28;20040;-70
2022/04/03 02:12:21;;;;;;;33.78;18.20;;;;;;;;;;5054836;28;20032;-73
2022/04/03 02:14:46;;;;;;;37.03;18.23;;;;;;;;;;5053737;28;20040;-71
2022/04/03 02:17:11;;;;;;;35.00;19.03;;;;;;;;;;5054835;28;20047;-70
2022/04/03 02:19:37;;;;;;;32.97;17.67;;;;;;;;;;5052920;28;20509;-71
2022/04/03 02:22:02;;;;;;;34.00;19.23;;;;;;;;;;5054694;28;20274;-70
2022/04/03 02:24:27;;;;;;;32.22;18.25;;;;;;;;;;5053395;28;20036;-71
2022/04/03 02:26:53;;;;;;;33.90;18.53;;;;;;;;;;5054713;28;20060;-70
2022/04/03 02:29:18;;;;;;;38.15;20.33;;;;;;;;;;5053693;28;20297;-70
2022/04/03 02:31:43;;;;;;;35.50;18.77;;;;;;;;;;5054554;28;20088;-69
2022/04/03 02:34:09;;;;;;;35.75;19.48;;;;;;;;;;5052872;28;20167;-70
2022/04/03 02:36:34;;;;;;;36.93;19.80;;;;;;;;;;5055092;28;20035;-70
2022/04/03 02:39:00;;;;;;;34.92;19.98;;;;;;;;;;5054527;28;20270;-70
2022/04/03 02:41:25;;;;;;;31.70;17.52;;;;;;;;;;5049731;28;20514;-71
2022/04/03 02:43:51;;;;;;;32.78;18.50;;;;;;;;;;5051973;28;20044;-71
2022/04/03 02:46:16;;;;;;;38.88;20.38;;;;;;;;;;5054796;28;20044;-70
2022/04/03 02:48:41;;;;;;;40.05;20.42;;;;;;;;;;5054197;28;20040;-70
2022/04/03 02:51:06;;;;;;;41.22;19.30;;;;;;;;;;5053770;28;20055;-70
2022/04/03 02:53:32;;;;;;;35.60;19.30;;;;;;;;;;5054297;28;20520;-71
2022/04/03 02:55:57;;;;;;;34.53;18.20;;;;;;;;;;5054576;28;20270;-69
2022/04/03 02:58:22;;;;;;;34.67;18.47;;;;;;;;;;5052596;28;20273;-70
2022/04/03 03:00:47;;;;;;;36.00;19.07;;;;;;;;;;5039474;28;20278;-70
2022/04/03 03:03:13;;;;;;;35.08;18.17;;;;;;;;;;5053515;28;20813;-70
2022/04/03 03:05:42;;;;;;;36.67;20.53;;;;;;;;;;5053711;28;20029;-70
2022/04/03 03:08:07;;;;;;;37.80;20.50;;;;;;;;;;5053657;28;20946;-70
2022/04/03 03:10:33;;;;;;;38.90;19.65;;;;;;;;;;5054320;28;20136;-71
2022/04/03 03:12:58;;;;;;;37.38;18.55;;;;;;;;;;5053560;28;20052;-70
2022/04/03 03:15:24;;;;;;;34.97;18.83;;;;;;;;;;5053955;28;20044;-70
2022/04/03 03:17:50;;;;;;;32.25;17.40;;;;;;;;;;5053117;28;20047;-70
2022/04/03 03:20:16;;;;;;;33.78;19.10;;;;;;;;;;5056585;28;20029;-69
2022/04/03 03:22:41;;;;;;;34.28;18.52;;;;;;;;;;5046746;28;20064;-70
2022/04/03 03:25:07;;;;;;;36.08;19.17;;;;;;;;;;5060130;28;20045;-70
2022/04/03 03:27:33;;;;;;;34.50;18.67;;;;;;;;;;5061584;28;20437;-69
2022/04/03 03:29:58;;;;;;;35.22;19.48;;;;;;;;;;5060748;28;20100;-69
2022/04/03 03:32:24;;;;;;;37.45;19.75;;;;;;;;;;5060167;28;20495;-70
2022/04/03 03:34:54;;;;;;;32.72;17.80;;;;;;;;;;5052205;28;20043;-71
2022/04/03 03:37:19;;;;;;;;;;;;;;;;;;5053951;28;20033;-70
2022/04/03 03:39:44;;;;;;;35.13;17.02;;;;;;;;;;5051617;28;19919;-69
2022/04/03 03:42:10;;;;;;;34.95;18.23;;;;;;;;;;5052909;28;20040;-70
2022/04/03 03:44:35;;;;;;;39.08;18.45;;;;;;;;;;5052567;28;20040;-71
2022/04/03 03:47:00;;;;;;;32.83;17.03;;;;;;;;;;5053601;28;20069;-69
2022/04/03 03:49:26;;;;;;;33.15;18.30;;;;;;;;;;5053240;28;20670;-70
2022/04/03 03:51:51;;;;;;;35.67;18.95;;;;;;;;;;5053324;28;20728;-69
2022/04/03 03:54:17;;;;;;;32.20;18.33;;;;;;;;;;5052364;28;20098;-69
2022/04/03 03:56:42;;;;;;;38.03;18.92;;;;;;;;;;5053241;28;20029;-69
2022/04/03 03:59:08;;;;;;;32.10;18.00;;;;;;;;;;5049060;28;20053;-69
2022/04/03 04:01:34;;;;;;;36.40;18.63;;;;;;;;;;5046862;28;20068;-70
2022/04/03 04:04:00;;;;;;;37.38;19.13;;;;;;;;;;5052231;28;20475;-69
2022/04/03 04:06:25;;;;;;;34.63;18.25;;;;;;;;;;5053366;28;20086;-71
2022/04/03 04:08:50;;;;;;;33.10;18.03;;;;;;;;;;5053145;28;20115;-71
2022/04/03 04:11:16;;;;;;;39.90;20.98;;;;;;;;;;5052596;28;20743;-70
2022/04/03 04:13:41;;;;;;;34.28;18.25;;;;;;;;;;5052954;28;20041;-71
2022/04/03 04:16:06;;;;;;;33.27;18.27;;;;;;;;;;5051404;28;20049;-71
2022/04/03 04:18:32;;;;;;;34.78;19.13;;;;;;;;;;5053375;28;20262;-69
2022/04/03 04:20:57;;;;;;;39.35;21.08;;;;;;;;;;5052631;28;20033;-70
2022/04/03 04:23:22;;;;;;;38.38;19.02;;;;;;;;;;5053000;28;20033;-70
2022/04/03 04:25:48;;;;;;;35.72;18.40;;;;;;;;;;5052504;28;20437;-69
2022/04/03 04:28:13;;;;;;;34.13;19.00;;;;;;;;;;5052991;28;20025;-69
2022/04/03 04:30:39;;;;;;;37.78;19.88;;;;;;;;;;5051835;28;20065;-69
2022/04/03 04:33:06;;;;;;;37.47;19.35;;;;;;;;;;5052165;28;20378;-70
2022/04/03 04:35:31;;;;;;;32.97;17.55;;;;;;;;;;5052975;28;20437;-69
2022/04/03 04:37:56;;;;;;;34.70;18.60;;;;;;;;;;5052654;28;20025;-70
2022/04/03 04:40:22;;;;;;;37.10;19.37;;;;;;;;;;5052314;28;20028;-69
2022/04/03 04:42:47;;;;;;;37.70;19.35;;;;;;;;;;5048122;28;20294;-69
2022/04/03 04:45:14;;;;;;;35.70;19.30;;;;;;;;;;5050105;28;20063;-71
2022/04/03 04:47:40;;;;;;;41.88;21.80;;;;;;;;;;5050612;28;20040;-73
2022/04/03 04:50:07;;;;;;;40.30;19.42;;;;;;;;;;5049304;28;20025;-70
2022/04/03 04:52:32;;;;;;;39.53;20.88;;;;;;;;;;5047593;28;20032;-71
2022/04/03 04:54:57;;;;;;;37.80;19.87;;;;;;;;;;5051490;28;20040;-71
2022/04/03 04:57:22;;;;;;;39.60;18.90;;;;;;;;;;5048941;28;20278;-73
2022/04/03 04:59:48;;;;;;;36.77;19.70;;;;;;;;;;5048461;28;20981;-69
2022/04/03 05:02:13;;;;;;;35.10;16.98;;;;;;;;;;5042460;28;20289;-73
2022/04/03 05:04:39;;;;;;;39.15;19.55;;;;;;;;;;5047362;28;20048;-73
2022/04/03 05:07:05;;;;;;;39.43;19.70;;;;;;;;;;5047972;28;20036;-73
2022/04/03 05:09:31;;;;;;;34.88;17.40;;;;;;;;;;5049313;28;20722;-73
2022/04/03 05:11:57;;;;;;;31.90;18.13;;;;;;;;;;5045274;28;20032;-74
2022/04/03 05:14:23;;;;;;;36.28;18.95;;;;;;;;;;5047876;28;20032;-73
2022/04/03 05:16:49;;;;;;;36.65;18.92;;;;;;;;;;5049565;28;20063;-74
2022/04/03 05:19:14;;;;;;;34.95;19.60;;;;;;;;;;5049960;28;20033;-73
2022/04/03 05:21:40;;;;;;;36.50;18.23;;;;;;;;;;5048560;28;20124;-73
2022/04/03 05:24:06;;;;;;;32.58;17.08;;;;;;;;;;5045507;28;20033;-73
2022/04/03 05:26:31;;;;;;;33.80;18.02;;;;;;;;;;5046967;28;20403;-73
2022/04/03 05:28:56;;;;;;;35.00;18.13;;;;;;;;;;5048298;28;20063;-72
2022/04/03 05:31:22;;;;;;;33.15;18.00;;;;;;;;;;5048502;28;20781;-73
2022/04/03 05:33:48;;;;;;;35.28;18.67;;;;;;;;;;5045436;28;20040;-74
2022/04/03 05:36:13;;;;;;;36.28;19.23;;;;;;;;;;5045399;28;20033;-75
2022/04/03 05:38:39;;;;;;;36.17;17.63;;;;;;;;;;5047687;28;20048;-74
2022/04/03 05:41:04;;;;;;;36.13;17.53;;;;;;;;;;5046382;28;20282;-75
2022/04/03 05:43:29;;;;;;;33.70;18.00;;;;;;;;;;5046127;28;20702;-77
2022/04/03 05:45:54;;;;;;;32.63;17.27;;;;;;;;;;5050117;28;20281;-75
2022/04/03 05:48:20;;;;;;;29.02;16.77;;;;;;;;;;5053507;28;20278;-73
2022/04/03 05:50:45;;;;;;;33.87;17.33;;;;;;;;;;5051810;28;20033;-73
2022/04/03 05:53:10;;;;;;;34.43;17.73;;;;;;;;;;5052912;28;20357;-74
2022/04/03 05:55:36;;;;;;;32.30;16.75;;;;;;;;;;5053638;28;20300;-74
2022/04/03 05:58:01;;;;;;;33.17;17.13;;;;;;;;;;5052132;28;20047;-74
2022/04/03 06:00:26;;;;;;;34.15;19.40;;;;;;;;;;5052075;28;20045;-74
2022/04/03 06:02:52;;;;;;;33.33;17.85;;;;;;;;;;5050758;28;20128;-74
2022/04/03 06:05:19;;;;;;;36.78;18.80;;;;;;;;;;5052963;28;20443;-73
2022/04/03 06:07:44;;;;;;;35.60;18.67;;;;;;;;;;5053432;28;20053;-74
2022/04/03 06:10:10;;;;;;;35.40;18.38;;;;;;;;;;5053240;28;20052;-74
2022/04/03 06:12:35;;;;;;;40.10;20.63;;;;;;;;;;5052386;28;20566;-74
2022/04/03 06:15:00;;;;;;;36.72;18.52;;;;;;;;;;5051192;28;20086;-75
2022/04/03 06:17:25;;;;;;;37.80;19.67;;;;;;;;;;5051208;28;20044;-74
2022/04/03 06:19:51;;;;;;;41.60;21.30;;;;;;;;;;5049409;28;20064;-75
2022/04/03 06:22:16;;;;;;;39.40;19.67;;;;;;;;;;5051011;28;20499;-75
2022/04/03 06:24:41;;;;;;;35.63;17.77;;;;;;;;;;5044733;28;20078;-74
2022/04/03 06:27:06;;;;;;;38.53;19.30;;;;;;;;;;5052355;28;20278;-74
2022/04/03 06:29:32;;;;;;;36.00;18.08;;;;;;;;;;5052486;28;20739;-76
2022/04/03 06:31:57;;;;;;;34.95;18.92;;;;;;;;;;5052470;28;20391;-73
2022/04/03 06:34:22;;;;;;;34.75;19.00;;;;;;;;;;5051703;28;20470;-74
2022/04/03 06:36:48;;;;;;;36.20;19.25;;;;;;;;;;5058319;28;20041;-74
2022/04/03 06:39:13;;;;;;;31.93;17.40;;;;;;;;;;5053905;28;20045;-74
2022/04/03 06:41:39;;;;;;;35.93;19.10;;;;;;;;;;5054745;28;20321;-75
2022/04/03 06:44:04;;;;;;;39.42;18.60;;;;;;;;;;5051995;28;20273;-75
2022/04/03 06:46:30;;;;;;;36.80;18.48;;;;;;;;;;5061226;28;20045;-73
2022/04/03 06:48:55;;;;;;;35.28;19.35;;;;;;;;;;5057518;28;20067;-74
2022/04/03 06:51:20;;;;;;;36.05;18.73;;;;;;;;;;5047356;28;20033;-75
2022/04/03 06:53:46;;;;;;;38.10;19.05;;;;;;;;;;5049532;28;20061;-75
2022/04/03 06:56:11;;;;;;;34.33;19.20;;;;;;;;;;5050520;28;20120;-75
2022/04/03 06:58:37;;;;;;;35.67;18.70;;;;;;;;;;5050444;28;20289;-75
2022/04/03 07:01:02;;;;;;;31.58;17.15;;;;;;;;;;5052124;28;20347;-74
2022/04/03 07:03:28;;;;;;;34.88;18.67;;;;;;;;;;5052016;28;20455;-75
2022/04/03 07:05:53;;;;;;;32.47;17.73;;;;;;;;;;5052189;28;20039;-75
2022/04/03 07:08:19;;;;;;;42.67;20.73;;;;;;;;;;5051936;28;20044;-74
2022/04/03 07:10:44;;;;;;;38.08;19.48;;;;;;;;;;5051128;28;20033;-74
2022/04/03 07:13:10;;;;;;;35.17;19.75;;;;;;;;;;5051484;28;20032;-76
2022/04/03 07:15:36;;;;;;;36.80;19.08;;;;;;;;;;5050806;28;20060;-76
2022/04/03 07:18:01;;;;;;;33.85;18.35;;;;;;;;;;5050432;28;20075;-75
2022/04/03 07:20:26;;;;;;;39.03;18.57;;;;;;;;;;5048673;28;20515;-73
2022/04/03 07:22:51;;;;;;;31.77;17.73;;;;;;;;;;5050121;28;20301;-75
2022/04/03 07:25:17;;;;;;;36.10;19.65;;;;;;;;;;5050250;28;20064;-76
2022/04/03 07:27:42;;;;;;;35.63;18.38;;;;;;;;;;5051476;28;20040;-76
2022/04/03 07:30:12;;;;;;;32.35;17.30;;;;;;;;;;5051591;28;20052;-75
2022/04/03 07:32:37;;;;;;;;;;;;;;;;;;5050920;28;20132;-74
2022/04/03 07:35:03;;;;;;;38.15;19.17;;;;;;;;;;5049295;28;20003;-74
2022/04/03 07:37:29;;;;;;;37.17;21.08;;;;;;;;;;5048987;28;20033;-72
2022/04/03 07:39:54;;;;;;;40.10;22.38;;;;;;;;;;5050273;28;20382;-72
2022/04/03 07:42:19;;;;;;;39.30;20.53;;;;;;;;;;5044162;28;20443;-71
2022/04/03 07:44:44;;;;;;;37.83;20.13;;;;;;;;;;5049982;28;20273;-72
2022/04/03 07:47:11;;;;;;;36.72;22.05;;;;;;;;;;5048976;28;20274;-72
2022/04/03 07:49:36;;;;;;;33.60;18.83;;;;;;;;;;5050269;28;20037;-71
2022/04/03 07:52:02;;;;;;;33.78;18.25;;;;;;;;;;5050606;28;20052;-71
2022/04/03 07:54:27;;;;;;;39.05;21.05;;;;;;;;;;5050720;28;20075;-73
2022/04/03 07:56:52;;;;;;;40.45;24.08;;;;;;;;;;5050437;28;20037;-71
2022/04/03 07:59:18;;;;;;;33.22;19.92;;;;;;;;;;5050957;28;20457;-72
2022/04/03 08:01:43;;;;;;;29.97;17.20;;;;;;;;;;5048396;28;20495;-71
2022/04/03 08:04:10;;;;;;;31.87;17.27;;;;;;;;;;5049292;28;20258;-72
2022/04/03 08:06:36;;;;;;;30.02;17.65;;;;;;;;;;5048819;28;20064;-72
2022/04/03 08:09:01;;;;;;;30.13;17.65;;;;;;;;;;5050454;28;20075;-73
2022/04/03 08:11:26;;;;;;;30.63;18.73;;;;;;;;;;5050092;28;20170;-71
2022/04/03 08:13:51;;;;;;;27.17;14.98;;;;;;;;;;5049040;28;20278;-72
2022/04/03 08:16:17;;;;;;;30.07;16.90;;;;;;;;;;5044318;28;20037;-73
2022/04/03 08:18:43;;;;;;;31.20;17.00;;;;;;;;;;5047248;28;20854;-69
2022/04/03 08:21:10;;;;;;;29.23;16.65;;;;;;;;;;5049251;28;20174;-69
2022/04/03 08:23:36;;;;;;;32.22;18.40;;;;;;;;;;5047892;28;20079;-69
2022/04/03 08:26:01;;;;;;;32.15;18.10;;;;;;;;;;5043797;28;20084;-70
2022/04/03 08:28:28;;;;;;;29.33;16.67;;;;;;;;;;5035617;28;20033;-70
2022/04/03 08:30:53;;;;;;;39.22;22.77;;;;;;;;;;5050049;28;20110;-69
2022/04/03 08:33:19;;;;;;;56.67;25.95;;;;;;;;;;5048815;28;20045;-70
2022/04/03 08:35:44;;;;;;;29.67;17.02;;;;;;;;;;5049351;28;20032;-68
2022/04/03 08:38:10;;;;;;;27.02;16.98;;;;;;;;;;5045681;28;20041;-70
2022/04/03 08:40:35;;;;;;;29.92;17.67;;;;;;;;;;5048971;28;20036;-70
2022/04/03 08:43:02;;;;;;;30.73;17.20;;;;;;;;;;5046918;28;20033;-70
2022/04/03 08:45:27;;;;;;;35.00;21.35;;;;;;;;;;5049087;28;20045;-70
2022/04/03 08:47:54;;;;;;;31.70;19.05;;;;;;;;;;5050957;28;20044;-71
2022/04/03 08:50:20;;;;;;;27.25;17.38;;;;;;;;;;5050397;28;20044;-70
2022/04/03 08:52:50;;;;;;;44.75;27.17;;;;;;;;;;5049938;28;20048;-70
2022/04/03 08:55:16;;;;;;;59.38;38.22;;;;;;;;;;5040516;28;20048;-69
2022/04/03 08:57:41;;;;;;;33.92;19.98;;;;;;;;;;5044115;28;20032;-69
2022/04/03 09:00:07;;;;;;;34.53;20.10;;;;;;;;;;5046934;28;20060;-69
2022/04/03 09:02:32;;;;;;;34.90;20.10;;;;;;;;;;5047531;28;20616;-70
2022/04/03 09:04:58;;;;;;;54.53;33.88;;;;;;;;;;5048765;28;20063;-70
2022/04/03 09:07:23;;;;;;;33.33;21.38;;;;;;;;;;5046487;28;20036;-71
2022/04/03 09:09:59;;;;;;;29.35;17.38;;;;;;;;;;5043053;28;20037;-69
2022/04/03 09:12:24;;;;;;;31.17;17.17;;;;;;;;;;5047196;28;20044;-69
2022/04/03 09:14:51;;;;;;;28.40;15.93;;;;;;;;;;5048982;28;20124;-70
2022/04/03 09:17:31;;;;;;;29.67;17.50;;;;;;;;;;5047388;28;20025;-70
2022/04/03 09:19:59;;;;;;;32.55;18.52;;;;;;;;;;5046654;28;20120;-71
2022/04/03 09:22:30;;;;;;;31.42;19.73;;;;;;;;;;5048596;28;20037;-70
2022/04/03 09:24:55;;;;;;;27.08;16.20;;;;;;;;;;5050397;28;20041;-70
2022/04/03 09:27:22;;;;;;;31.88;18.52;;;;;;;;;;5049930;28;20033;-69
2022/04/03 09:29:59;;;;;;;33.38;18.80;;;;;;;;;;5047997;28;20045;-69
2022/04/03 09:32:27;;;;;;;28.27;16.42;;;;;;;;;;5043129;28;20083;-69
2022/04/03 09:34:55;;;;;;;29.60;17.65;;;;;;;;;;5049255;28;20048;-71
2022/04/03 09:37:20;;;;;;;29.08;17.95;;;;;;;;;;5049529;28;20094;-68
2022/04/03 09:39:46;;;;;;;30.40;17.50;;;;;;;;;;5048298;28;20045;-70
2022/04/03 09:42:13;;;;;;;29.55;17.08;;;;;;;;;;5045796;28;20059;-69
2022/04/03 09:44:42;;;;;;;30.45;17.73;;;;;;;;;;5048111;28;20029;-69
2022/04/03 09:47:13;;;;;;;31.13;17.95;;;;;;;;;;5047251;28;20072;-71
2022/04/03 09:49:39;;;;;;;30.25;17.95;;;;;;;;;;5049601;28;20102;-69
2022/04/03 09:52:04;;;;;;;30.95;19.10;;;;;;;;;;5047942;28;20029;-69
2022/04/03 09:54:30;;;;;;;30.13;16.98;;;;;;;;;;5035259;28;20037;-70
2022/04/03 09:56:55;;;;;;;29.83;18.23;;;;;;;;;;5045754;28;20116;-69
2022/04/03 09:59:21;;;;;;;31.67;18.00;;;;;;;;;;5047761;28;20057;-71
2022/04/03 10:01:55;;;;;;;29.67;16.45;;;;;;;;;;5056786;28;20048;-70
2022/04/03 10:04:20;;;;;;;27.77;16.30;;;;;;;;;;5046367;28;20097;-71
2022/04/03 10:06:45;;;;;;;28.08;16.92;;;;;;;;;;5045093;28;20611;-70
2022/04/03 10:09:15;;;;;;;28.92;18.10;;;;;;;;;;5057314;28;20040;-70
2022/04/03 10:11:43;;;;;;;30.98;18.33;;;;;;;;;;5060493;28;20024;-69
2022/04/03 10:14:09;;;;;;;30.27;16.97;;;;;;;;;;5053576;28;20041;-70
2022/04/03 10:16:35;;;;;;;33.05;18.42;;;;;;;;;;5050550;28;20208;-69
2022/04/03 10:19:01;;;;;;;33.88;19.42;;;;;;;;;;5049587;28;20126;-70
2022/04/03 10:21:37;;;;;;;31.90;17.45;;;;;;;;;;5054136;28;20758;-71
2022/04/03 10:24:06;;;;;;;29.85;17.67;;;;;;;;;;5043722;28;20040;-73
2022/04/03 10:26:36;;;;;;;28.08;17.15;;;;;;;;;;5050704;28;20087;-71
2022/04/03 10:29:01;;;;;;;32.33;16.30;;;;;;;;;;5046853;28;20029;-69
2022/04/03 10:31:27;;;;;;;24.25;14.50;;;;;;;;;;5047333;28;20397;-69
2022/04/03 10:33:52;;;;;;;25.67;15.02;;;;;;;;;;5050884;28;20407;-69
2022/04/03 10:36:29;;;;;;;26.52;15.88;;;;;;;;;;5048931;28;20044;-69
2022/04/03 10:39:00;;;;;;;28.83;16.10;;;;;;;;;;5042838;28;20558;-70
2022/04/03 10:41:26;;;;;;;27.80;16.08;;;;;;;;;;5051937;28;20056;-71
2022/04/03 10:44:09;;;;;;;26.63;15.93;;;;;;;;;;5034613;28;20083;-70
2022/04/03 10:46:54;;;;;;;27.85;16.13;;;;;;;;;;5052704;28;20495;-69
2022/04/03 10:49:19;;;;;;;28.20;16.00;;;;;;;;;;5050802;28;20045;-69
2022/04/03 10:51:45;;;;;;;31.37;17.40;;;;;;;;;;5051864;28;20040;-69
2022/04/03 10:54:11;;;;;;;30.10;17.15;;;;;;;;;;5052247;28;20278;-69
2022/04/03 10:56:36;;;;;;;28.38;17.17;;;;;;;;;;5051324;28;20510;-69
2022/04/03 10:59:09;;;;;;;27.35;16.65;;;;;;;;;;5052246;28;20064;-69
2022/04/03 11:01:34;;;;;;;32.33;16.92;;;;;;;;;;5051866;28;20028;-68
2022/04/03 11:04:10;;;;;;;30.00;16.52;;;;;;;;;;5050606;28;20491;-69
2022/04/03 11:06:37;;;;;;;29.90;16.83;;;;;;;;;;5050232;28;20036;-68
2022/04/03 11:09:05;;;;;;;30.10;16.27;;;;;;;;;;5052634;28;20509;-68
2022/04/03 11:11:31;;;;;;;27.33;15.70;;;;;;;;;;5052095;28;20067;-68
2022/04/03 11:13:57;;;;;;;29.40;16.27;;;;;;;;;;5051969;28;20033;-70
2022/04/03 11:16:23;;;;;;;26.50;16.40;;;;;;;;;;5049485;28;20041;-69
2022/04/03 11:18:50;;;;;;;28.20;15.57;;;;;;;;;;5052304;28;20152;-70
2022/04/03 11:21:22;;;;;;;25.08;15.15;;;;;;;;;;5050032;28;20029;-69
2022/04/03 11:24:00;;;;;;;30.42;14.82;;;;;;;;;;5051318;28;20045;-70
2022/04/03 11:26:25;;;;;;;25.70;14.57;;;;;;;;;;5051874;28;20033;-70
2022/04/03 11:28:50;;;;;;;24.47;14.10;;;;;;;;;;5051976;28;20110;-68
2022/04/03 11:31:16;;;;;;;26.63;13.10;;;;;;;;;;5051284;28;20297;-69
2022/04/03 11:33:41;;;;;;;25.67;14.85;;;;;;;;;;5051823;28;20495;-67
2022/04/03 11:36:13;;;;;;;25.65;15.13;;;;;;;;;;5051298;28;20040;-68
2022/04/03 11:38:43;;;;;;;24.90;13.85;;;;;;;;;;5052320;28;20037;-68
2022/04/03 11:41:11;;;;;;;25.00;13.18;;;;;;;;;;5051646;28;20082;-69
2022/04/03 11:43:37;;;;;;;23.83;13.63;;;;;;;;;;5047907;28;20040;-71
2022/04/03 11:46:03;;;;;;;21.67;12.05;;;;;;;;;;5049788;28;20499;-71
2022/04/03 11:48:30;;;;;;;20.58;11.82;;;;;;;;;;5049644;28;20376;-70
2022/04/03 11:51:21;;;;;;;22.27;12.57;;;;;;;;;;5050823;28;20049;-70
2022/04/03 11:53:49;;;;;;;22.38;12.52;;;;;;;;;;5047421;28;20060;-70
2022/04/03 11:56:18;;;;;;;21.08;11.70;;;;;;;;;;5049745;28;20123;-70
2022/04/03 11:58:45;;;;;;;23.20;13.05;;;;;;;;;;5050847;28;20036;-70
2022/04/03 12:01:11;;;;;;;18.85;11.13;;;;;;;;;;5050077;28;20101;-69
2022/04/03 12:03:37;;;;;;;19.52;11.25;;;;;;;;;;5050862;28;20037;-69
2022/04/03 12:06:16;;;;;;;23.30;12.05;;;;;;;;;;5048883;28;20048;-68
2022/04/03 12:08:41;;;;;;;19.02;11.73;;;;;;;;;;5047248;28;20124;-68
2022/04/03 12:11:17;;;;;;;23.65;12.75;;;;;;;;;;5049258;28;20458;-68
2022/04/03 12:13:42;;;;;;;20.90;12.45;;;;;;;;;;5037339;28;20037;-69
2022/04/03 12:16:07;;;;;;;23.50;13.17;;;;;;;;;;5045243;28;20499;-68
2022/04/03 12:18:51;;;;;;;23.27;12.60;;;;;;;;;;5037498;28;20315;-69
2022/04/03 12:21:17;;;;;;;22.38;12.75;;;;;;;;;;5033391;28;20266;-69
2022/04/03 12:24:05;;;;;;;23.40;13.15;;;;;;;;;;5038929;28;20383;-69
2022/04/03 12:26:31;;;;;;;19.70;11.68;;;;;;;;;;5050708;28;20040;-70
2022/04/03 12:28:56;;;;;;;19.00;11.23;;;;;;;;;;5042866;28;20399;-70
2022/04/03 12:31:25;;;;;;;20.10;12.20;;;;;;;;;;5038919;28;20029;-69
2022/04/03 12:33:52;;;;;;;18.48;10.88;;;;;;;;;;5036107;28;20149;-70
2022/04/03 12:36:18;;;;;;;18.13;11.50;;;;;;;;;;5047431;28;20044;-70
2022/04/03 12:38:49;;;;;;;19.92;11.43;;;;;;;;;;5049886;28;20029;-70
2022/04/03 12:41:14;;;;;;;20.27;11.75;;;;;;;;;;5048750;28;20072;-70
2022/04/03 12:43:46;;;;;;;18.27;11.00;;;;;;;;;;5043882;28;20129;-68
2022/04/03 12:46:12;;;;;;;18.52;10.82;;;;;;;;;;5048330;28;20335;-69
2022/04/03 12:48:37;;;;;;;16.80;10.27;;;;;;;;;;5047926;28;20380;-69
2022/04/03 12:51:08;;;;;;;17.88;9.93;;;;;;;;;;5048476;28;20033;-69
2022/04/03 12:53:33;;;;;;;13.88;8.90;;;;;;;;;;5049732;28;20044;-68
2022/04/03 12:56:03;;;;;;;12.87;8.60;;;;;;;;;;5048817;28;20041;-69
2022/04/03 12:58:30;;;;;;;11.90;7.63;;;;;;;;;;5047246;28;20266;-69
2022/04/03 13:01:01;;;;;;;11.88;8.05;;;;;;;;;;5046022;28;20447;-69
2022/04/03 13:03:26;;;;;;;11.90;7.90;;;;;;;;;;5056020;28;20048;-69
2022/04/03 13:05:55;;;;;;;14.25;8.23;;;;;;;;;;5049339;28;20037;-68
2022/04/03 13:08:21;;;;;;;11.52;7.68;;;;;;;;;;5049113;28;20044;-69
2022/04/03 13:10:50;;;;;;;15.05;8.82;;;;;;;;;;5048895;28;20045;-69
2022/04/03 13:13:19;;;;;;;14.13;8.90;;;;;;;;;;5048917;28;20033;-72
2022/04/03 13:15:44;;;;;;;13.77;8.35;;;;;;;;;;5047017;28;20274;-72
2022/04/03 13:18:09;;;;;;;12.73;8.37;;;;;;;;;;5041974;28;20097;-71
2022/04/03 13:20:34;;;;;;;16.23;9.30;;;;;;;;;;5049766;28;20087;-71
2022/04/03 13:23:00;;;;;;;12.60;8.38;;;;;;;;;;5047768;28;20292;-69
2022/04/03 13:25:25;;;;;;;13.00;8.80;;;;;;;;;;5050863;28;20029;-70
2022/04/03 13:27:50;;;;;;;14.73;9.13;;;;;;;;;;5060968;28;20258;-69
2022/04/03 13:30:15;;;;;;;12.70;8.37;;;;;;;;;;5060813;28;20261;-70
2022/04/03 13:32:41;;;;;;;12.47;8.43;;;;;;;;;;5059156;28;20337;-70
2022/04/03 13:35:06;;;;;;;13.68;8.85;;;;;;;;;;5076146;28;20281;-70
2022/04/03 13:37:31;;;;;;;13.35;8.68;;;;;;;;;;5066095;28;20037;-70
2022/04/03 13:39:57;;;;;;;13.87;9.17;;;;;;;;;;5059415;28;20043;-69
2022/04/03 13:42:22;;;;;;;12.88;8.30;;;;;;;;;;5043888;28;20401;-72
2022/04/03 13:44:48;;;;;;;14.85;8.57;;;;;;;;;;5043538;28;20083;-70
2022/04/03 13:47:13;;;;;;;12.25;7.45;;;;;;;;;;5049884;28;20040;-70
2022/04/03 13:49:38;;;;;;;12.10;7.03;;;;;;;;;;5049364;28;20049;-69
2022/04/03 13:52:04;;;;;;;10.93;7.82;;;;;;;;;;5049579;28;20037;-69
2022/04/03 13:54:29;;;;;;;13.13;8.35;;;;;;;;;;5048526;28;20495;-71
2022/04/03 13:56:55;;;;;;;16.25;9.18;;;;;;;;;;5048026;28;20041;-69
2022/04/03 13:59:20;;;;;;;14.23;8.88;;;;;;;;;;5048444;28;20056;-70
2022/04/03 14:01:47;;;;;;;13.93;9.10;;;;;;;;;;5051243;28;20069;-69
2022/04/03 14:04:12;;;;;;;18.70;10.48;;;;;;;;;;5032636;28;20335;-71
2022/04/03 14:06:37;;;;;;;17.85;11.15;;;;;;;;;;5050334;28;20037;-71
2022/04/03 14:09:04;;;;;;;18.30;10.35;;;;;;;;;;5051309;28;20049;-70
2022/04/03 14:11:29;;;;;;;11.93;8.05;;;;;;;;;;5053115;28;20033;-70
2022/04/03 14:13:55;;;;;;;9.30;6.78;;;;;;;;;;5052605;28;20043;-70